sensor_id;sensor_type;location;lat;lon;timestamp;P1;durP1;ratioP1;P2;durP2;ratioP2
16286;SDS011;8251;53.568;10.018;2023-03-01T00:01:26;8.37;;;4.63;;
16286;SDS011;8251;53.568;10.018;2023-03-01T00:04:01;7.90;;;4.27;;
16286;SDS011;8251;53.568;10.018;2023-03-01T00:06:30;12.30;;;4.00;;
16286;SDS011;8251;53.568;10.018;2023-03-01T00:09:01;8.80;;;4.17;;
16286;SDS011;8251;53.568;10.018;2023-03-01T00:11:31;11.77;;;4.83;;
16286;SDS011;8251;53.568;10.018;2023-03-01T00:14:03;5.23;;;3.60;;
16286;SDS011;8251;53.568;10.018;2023-03-01T00:16:33;6.60;;;3.87;;
16286;SDS011;8251;53.568;10.018;2023-03-01T00:19:09;9.43;;;4.20;;
16286;SDS011;8251;53.568;10.018;2023-03-01T00:21:48;12.17;;;3.80;;
16286;SDS011;8251;53.568;10.018;2023-03-01T00:24:17;8.57;;;4.40;;
16286;SDS011;8251;53.568;10.018;2023-03-01T00:26:46;6.53;;;3.60;;
16286;SDS011;8251;53.568;10.018;2023-03-01T00:29:17;10.37;;;4.27;;
16286;SDS011;8251;53.568;10.018;2023-03-01T00:31:48;6.57;;;4.00;;
16286;SDS011;8251;53.568;10.018;2023-03-01T00:34:20;8.33;;;3.67;;
16286;SDS011;8251;53.568;10.018;2023-03-01T00:36:49;9.30;;;3.63;;
16286;SDS011;8251;53.568;10.018;2023-03-01T00:39:18;11.10;;;4.23;;
16286;SDS011;8251;53.568;10.018;2023-03-01T00:41:48;10.87;;;4.20;;
16286;SDS011;8251;53.568;10.018;2023-03-01T00:44:19;9.73;;;4.90;;
16286;SDS011;8251;53.568;10.018;2023-03-01T00:46:51;8.17;;;4.47;;
16286;SDS011;8251;53.568;10.018;2023-03-01T00:49:26;4.73;;;3.10;;
16286;SDS011;8251;53.568;10.018;2023-03-01T00:51:56;10.47;;;3.20;;
16286;SDS011;8251;53.568;10.018;2023-03-01T00:57:15;6.70;;;3.97;;
16286;SDS011;8251;53.568;10.018;2023-03-01T00:59:48;9.10;;;3.80;;
16286;SDS011;8251;53.568;10.018;2023-03-01T01:02:16;12.93;;;5.03;;
16286;SDS011;8251;53.568;10.018;2023-03-01T01:04:50;10.40;;;4.20;;
16286;SDS011;8251;53.568;10.018;2023-03-01T01:07:18;9.70;;;5.30;;
16286;SDS011;8251;53.568;10.018;2023-03-01T01:09:50;12.87;;;4.43;;
16286;SDS011;8251;53.568;10.018;2023-03-01T01:12:18;13.50;;;5.00;;
16286;SDS011;8251;53.568;10.018;2023-03-01T01:14:50;10.70;;;4.50;;
16286;SDS011;8251;53.568;10.018;2023-03-01T01:17:21;10.73;;;3.83;;
16286;SDS011;8251;53.568;10.018;2023-03-01T01:19:51;11.97;;;5.03;;
16286;SDS011;8251;53.568;10.018;2023-03-01T01:22:20;8.23;;;4.27;;
16286;SDS011;8251;53.568;10.018;2023-03-01T01:24:49;7.37;;;4.10;;
16286;SDS011;8251;53.568;10.018;2023-03-01T01:27:20;9.20;;;4.60;;
16286;SDS011;8251;53.568;10.018;2023-03-01T01:29:49;10.00;;;4.50;;
16286;SDS011;8251;53.568;10.018;2023-03-01T01:32:29;9.67;;;4.80;;
16286;SDS011;8251;53.568;10.018;2023-03-01T01:34:59;8.77;;;4.20;;
16286;SDS011;8251;53.568;10.018;2023-03-01T01:37:30;16.33;;;5.33;;
16286;SDS011;8251;53.568;10.018;2023-03-01T01:40:00;12.47;;;4.90;;
16286;SDS011;8251;53.568;10.018;2023-03-01T01:42:36;9.47;;;4.63;;
16286;SDS011;8251;53.568;10.018;2023-03-01T01:45:28;11.10;;;5.00;;
16286;SDS011;8251;53.568;10.018;2023-03-01T01:48:16;10.90;;;4.73;;
16286;SDS011;8251;53.568;10.018;2023-03-01T01:50:53;14.03;;;5.23;;
16286;SDS011;8251;53.568;10.018;2023-03-01T01:53:26;13.07;;;5.50;;
16286;SDS011;8251;53.568;10.018;2023-03-01T01:55:58;13.27;;;5.83;;
16286;SDS011;8251;53.568;10.018;2023-03-01T01:58:34;11.03;;;5.13;;
16286;SDS011;8251;53.568;10.018;2023-03-01T02:01:04;11.70;;;5.13;;
16286;SDS011;8251;53.568;10.018;2023-03-01T02:03:37;9.77;;;4.87;;
16286;SDS011;8251;53.568;10.018;2023-03-01T02:06:15;12.50;;;4.73;;
16286;SDS011;8251;53.568;10.018;2023-03-01T02:08:48;9.80;;;5.30;;
16286;SDS011;8251;53.568;10.018;2023-03-01T02:11:22;10.53;;;5.20;;
16286;SDS011;8251;53.568;10.018;2023-03-01T02:14:03;13.73;;;5.77;;
16286;SDS011;8251;53.568;10.018;2023-03-01T02:16:33;12.13;;;4.70;;
16286;SDS011;8251;53.568;10.018;2023-03-01T02:19:05;11.77;;;5.93;;
16286;SDS011;8251;53.568;10.018;2023-03-01T02:21:41;14.23;;;5.83;;
16286;SDS011;8251;53.568;10.018;2023-03-01T02:24:21;14.20;;;6.20;;
16286;SDS011;8251;53.568;10.018;2023-03-01T02:27:03;10.20;;;5.50;;
16286;SDS011;8251;53.568;10.018;2023-03-01T02:29:33;12.70;;;5.50;;
16286;SDS011;8251;53.568;10.018;2023-03-01T02:32:04;11.43;;;5.13;;
16286;SDS011;8251;53.568;10.018;2023-03-01T02:34:36;11.73;;;5.03;;
16286;SDS011;8251;53.568;10.018;2023-03-01T02:37:15;11.47;;;4.97;;
16286;SDS011;8251;53.568;10.018;2023-03-01T02:39:55;12.30;;;6.40;;
16286;SDS011;8251;53.568;10.018;2023-03-01T02:42:26;14.40;;;5.43;;
16286;SDS011;8251;53.568;10.018;2023-03-01T02:45:07;9.70;;;5.80;;
16286;SDS011;8251;53.568;10.018;2023-03-01T02:47:36;12.00;;;4.80;;
16286;SDS011;8251;53.568;10.018;2023-03-01T02:50:12;10.63;;;4.63;;
16286;SDS011;8251;53.568;10.018;2023-03-01T02:52:54;11.07;;;4.53;;
16286;SDS011;8251;53.568;10.018;2023-03-01T02:55:28;7.73;;;4.20;;
16286;SDS011;8251;53.568;10.018;2023-03-01T02:57:56;9.00;;;3.73;;
16286;SDS011;8251;53.568;10.018;2023-03-01T03:00:36;5.07;;;3.23;;
16286;SDS011;8251;53.568;10.018;2023-03-01T03:03:13;6.37;;;2.63;;
16286;SDS011;8251;53.568;10.018;2023-03-01T03:05:45;3.37;;;2.27;;
16286;SDS011;8251;53.568;10.018;2023-03-01T03:08:16;3.80;;;2.37;;
16286;SDS011;8251;53.568;10.018;2023-03-01T03:10:50;3.27;;;2.10;;
16286;SDS011;8251;53.568;10.018;2023-03-01T03:13:26;4.60;;;2.20;;
16286;SDS011;8251;53.568;10.018;2023-03-01T03:15:59;4.53;;;2.30;;
16286;SDS011;8251;53.568;10.018;2023-03-01T03:18:31;3.67;;;2.13;;
16286;SDS011;8251;53.568;10.018;2023-03-01T03:21:01;3.43;;;2.17;;
16286;SDS011;8251;53.568;10.018;2023-03-01T03:23:37;3.43;;;2.50;;
16286;SDS011;8251;53.568;10.018;2023-03-01T03:26:08;3.77;;;2.10;;
16286;SDS011;8251;53.568;10.018;2023-03-01T03:28:39;5.03;;;2.40;;
16286;SDS011;8251;53.568;10.018;2023-03-01T03:31:13;4.23;;;2.13;;
16286;SDS011;8251;53.568;10.018;2023-03-01T03:33:40;3.50;;;2.13;;
16286;SDS011;8251;53.568;10.018;2023-03-01T03:36:09;4.60;;;2.13;;
16286;SDS011;8251;53.568;10.018;2023-03-01T03:38:44;4.20;;;2.17;;
16286;SDS011;8251;53.568;10.018;2023-03-01T03:41:14;3.17;;;2.13;;
16286;SDS011;8251;53.568;10.018;2023-03-01T03:43:47;3.80;;;2.33;;
16286;SDS011;8251;53.568;10.018;2023-03-01T03:46:19;3.83;;;2.30;;
16286;SDS011;8251;53.568;10.018;2023-03-01T03:48:49;3.10;;;2.20;;
16286;SDS011;8251;53.568;10.018;2023-03-01T03:51:16;3.10;;;1.97;;
16286;SDS011;8251;53.568;10.018;2023-03-01T03:53:47;3.03;;;1.80;;
16286;SDS011;8251;53.568;10.018;2023-03-01T03:56:17;2.67;;;1.83;;
16286;SDS011;8251;53.568;10.018;2023-03-01T03:58:45;2.47;;;1.80;;
16286;SDS011;8251;53.568;10.018;2023-03-01T04:01:16;2.20;;;1.77;;
16286;SDS011;8251;53.568;10.018;2023-03-01T04:03:54;2.77;;;2.03;;
16286;SDS011;8251;53.568;10.018;2023-03-01T04:06:22;3.77;;;1.73;;
16286;SDS011;8251;53.568;10.018;2023-03-01T04:08:51;3.57;;;1.63;;
16286;SDS011;8251;53.568;10.018;2023-03-01T04:11:25;4.40;;;1.87;;
16286;SDS011;8251;53.568;10.018;2023-03-01T04:13:53;3.57;;;2.03;;
16286;SDS011;8251;53.568;10.018;2023-03-01T04:16:31;2.47;;;2.00;;
16286;SDS011;8251;53.568;10.018;2023-03-01T04:19:06;2.53;;;1.70;;
16286;SDS011;8251;53.568;10.018;2023-03-01T04:21:36;5.30;;;2.00;;
16286;SDS011;8251;53.568;10.018;2023-03-01T04:24:11;3.37;;;1.83;;
16286;SDS011;8251;53.568;10.018;2023-03-01T04:26:49;4.93;;;1.77;;
16286;SDS011;8251;53.568;10.018;2023-03-01T04:29:16;4.93;;;2.00;;
16286;SDS011;8251;53.568;10.018;2023-03-01T04:31:43;3.70;;;2.10;;
16286;SDS011;8251;53.568;10.018;2023-03-01T04:34:15;4.30;;;2.37;;
16286;SDS011;8251;53.568;10.018;2023-03-01T04:36:46;3.23;;;2.00;;
16286;SDS011;8251;53.568;10.018;2023-03-01T04:39:14;4.63;;;1.80;;
16286;SDS011;8251;53.568;10.018;2023-03-01T04:41:47;4.93;;;2.07;;
16286;SDS011;8251;53.568;10.018;2023-03-01T04:44:15;6.60;;;1.70;;
16286;SDS011;8251;53.568;10.018;2023-03-01T04:46:44;5.67;;;1.70;;
16286;SDS011;8251;53.568;10.018;2023-03-01T04:49:23;3.53;;;1.50;;
16286;SDS011;8251;53.568;10.018;2023-03-01T04:52:05;4.63;;;2.20;;
16286;SDS011;8251;53.568;10.018;2023-03-01T04:54:35;11.17;;;2.10;;
16286;SDS011;8251;53.568;10.018;2023-03-01T04:57:09;5.60;;;2.10;;
16286;SDS011;8251;53.568;10.018;2023-03-01T04:59:37;3.90;;;1.90;;
16286;SDS011;8251;53.568;10.018;2023-03-01T05:02:06;3.90;;;1.77;;
16286;SDS011;8251;53.568;10.018;2023-03-01T05:04:42;4.33;;;2.57;;
16286;SDS011;8251;53.568;10.018;2023-03-01T05:07:11;4.33;;;2.23;;
16286;SDS011;8251;53.568;10.018;2023-03-01T05:09:45;3.57;;;1.93;;
16286;SDS011;8251;53.568;10.018;2023-03-01T05:12:15;3.70;;;2.67;;
16286;SDS011;8251;53.568;10.018;2023-03-01T05:14:48;3.47;;;1.90;;
16286;SDS011;8251;53.568;10.018;2023-03-01T05:17:19;3.83;;;2.27;;
16286;SDS011;8251;53.568;10.018;2023-03-01T05:19:57;5.87;;;2.07;;
16286;SDS011;8251;53.568;10.018;2023-03-01T05:22:29;9.90;;;2.53;;
16286;SDS011;8251;53.568;10.018;2023-03-01T05:24:56;5.00;;;2.17;;
16286;SDS011;8251;53.568;10.018;2023-03-01T05:27:27;5.40;;;2.00;;
16286;SDS011;8251;53.568;10.018;2023-03-01T05:30:00;4.03;;;2.30;;
16286;SDS011;8251;53.568;10.018;2023-03-01T05:32:40;7.50;;;2.43;;
16286;SDS011;8251;53.568;10.018;2023-03-01T05:35:18;5.03;;;1.93;;
16286;SDS011;8251;53.568;10.018;2023-03-01T05:37:50;3.60;;;1.83;;
16286;SDS011;8251;53.568;10.018;2023-03-01T05:40:21;4.83;;;2.00;;
16286;SDS011;8251;53.568;10.018;2023-03-01T05:42:56;4.83;;;2.13;;
16286;SDS011;8251;53.568;10.018;2023-03-01T05:45:30;5.10;;;2.63;;
16286;SDS011;8251;53.568;10.018;2023-03-01T05:48:04;4.70;;;2.13;;
16286;SDS011;8251;53.568;10.018;2023-03-01T05:50:39;4.17;;;2.10;;
16286;SDS011;8251;53.568;10.018;2023-03-01T05:53:09;3.20;;;1.90;;
16286;SDS011;8251;53.568;10.018;2023-03-01T05:55:37;4.40;;;2.63;;
16286;SDS011;8251;53.568;10.018;2023-03-01T05:58:06;4.23;;;2.60;;
16286;SDS011;8251;53.568;10.018;2023-03-01T06:00:35;4.17;;;2.20;;
16286;SDS011;8251;53.568;10.018;2023-03-01T06:03:02;4.57;;;2.57;;
16286;SDS011;8251;53.568;10.018;2023-03-01T06:05:29;5.17;;;2.63;;
16286;SDS011;8251;53.568;10.018;2023-03-01T06:07:59;7.30;;;2.97;;
16286;SDS011;8251;53.568;10.018;2023-03-01T06:10:27;5.13;;;2.30;;
16286;SDS011;8251;53.568;10.018;2023-03-01T06:12:54;3.43;;;2.33;;
16286;SDS011;8251;53.568;10.018;2023-03-01T06:15:22;11.70;;;3.13;;
16286;SDS011;8251;53.568;10.018;2023-03-01T06:17:50;4.80;;;2.60;;
16286;SDS011;8251;53.568;10.018;2023-03-01T06:20:18;3.93;;;2.70;;
16286;SDS011;8251;53.568;10.018;2023-03-01T06:22:50;6.17;;;2.70;;
16286;SDS011;8251;53.568;10.018;2023-03-01T06:25:32;6.10;;;2.90;;
16286;SDS011;8251;53.568;10.018;2023-03-01T06:27:59;7.37;;;3.93;;
16286;SDS011;8251;53.568;10.018;2023-03-01T06:30:29;5.60;;;2.77;;
16286;SDS011;8251;53.568;10.018;2023-03-01T06:32:57;13.00;;;2.90;;
16286;SDS011;8251;53.568;10.018;2023-03-01T06:35:27;4.37;;;2.93;;
16286;SDS011;8251;53.568;10.018;2023-03-01T06:37:56;7.90;;;2.93;;
16286;SDS011;8251;53.568;10.018;2023-03-01T06:40:27;4.00;;;2.73;;
16286;SDS011;8251;53.568;10.018;2023-03-01T06:42:57;5.47;;;2.67;;
16286;SDS011;8251;53.568;10.018;2023-03-01T06:45:24;5.30;;;2.77;;
16286;SDS011;8251;53.568;10.018;2023-03-01T06:47:52;4.67;;;2.57;;
16286;SDS011;8251;53.568;10.018;2023-03-01T06:50:28;5.33;;;2.60;;
16286;SDS011;8251;53.568;10.018;2023-03-01T06:52:56;6.83;;;3.00;;
16286;SDS011;8251;53.568;10.018;2023-03-01T06:55:24;6.20;;;2.87;;
16286;SDS011;8251;53.568;10.018;2023-03-01T06:57:53;4.17;;;2.77;;
16286;SDS011;8251;53.568;10.018;2023-03-01T07:00:24;4.73;;;2.53;;
16286;SDS011;8251;53.568;10.018;2023-03-01T07:02:53;8.90;;;2.50;;
16286;SDS011;8251;53.568;10.018;2023-03-01T07:05:20;6.83;;;3.23;;
16286;SDS011;8251;53.568;10.018;2023-03-01T07:07:47;6.57;;;3.70;;
16286;SDS011;8251;53.568;10.018;2023-03-01T07:10:16;11.67;;;2.80;;
16286;SDS011;8251;53.568;10.018;2023-03-01T07:12:44;4.67;;;2.40;;
16286;SDS011;8251;53.568;10.018;2023-03-01T07:15:11;6.63;;;2.23;;
16286;SDS011;8251;53.568;10.018;2023-03-01T07:17:42;4.20;;;2.37;;
16286;SDS011;8251;53.568;10.018;2023-03-01T07:20:12;8.47;;;2.87;;
16286;SDS011;8251;53.568;10.018;2023-03-01T07:22:40;5.17;;;3.17;;
16286;SDS011;8251;53.568;10.018;2023-03-01T07:25:08;7.23;;;2.60;;
16286;SDS011;8251;53.568;10.018;2023-03-01T07:27:38;6.93;;;2.70;;
16286;SDS011;8251;53.568;10.018;2023-03-01T07:30:07;4.60;;;2.60;;
16286;SDS011;8251;53.568;10.018;2023-03-01T07:32:35;5.50;;;3.40;;
16286;SDS011;8251;53.568;10.018;2023-03-01T07:35:03;8.03;;;2.80;;
16286;SDS011;8251;53.568;10.018;2023-03-01T07:37:32;12.10;;;3.20;;
16286;SDS011;8251;53.568;10.018;2023-03-01T07:39:59;8.40;;;3.00;;
16286;SDS011;8251;53.568;10.018;2023-03-01T07:42:26;5.90;;;3.10;;
16286;SDS011;8251;53.568;10.018;2023-03-01T07:44:53;6.17;;;3.23;;
16286;SDS011;8251;53.568;10.018;2023-03-01T07:47:23;7.27;;;2.90;;
16286;SDS011;8251;53.568;10.018;2023-03-01T07:49:51;5.80;;;3.07;;
16286;SDS011;8251;53.568;10.018;2023-03-01T07:52:20;6.10;;;3.10;;
16286;SDS011;8251;53.568;10.018;2023-03-01T07:54:48;9.33;;;3.17;;
16286;SDS011;8251;53.568;10.018;2023-03-01T07:57:14;11.63;;;4.03;;
16286;SDS011;8251;53.568;10.018;2023-03-01T07:59:44;11.70;;;4.23;;
16286;SDS011;8251;53.568;10.018;2023-03-01T08:02:12;13.47;;;4.37;;
16286;SDS011;8251;53.568;10.018;2023-03-01T08:04:40;15.47;;;4.40;;
16286;SDS011;8251;53.568;10.018;2023-03-01T08:07:07;9.63;;;4.50;;
16286;SDS011;8251;53.568;10.018;2023-03-01T08:09:36;8.23;;;4.90;;
16286;SDS011;8251;53.568;10.018;2023-03-01T08:12:04;20.70;;;5.07;;
16286;SDS011;8251;53.568;10.018;2023-03-01T08:14:32;7.13;;;3.97;;
16286;SDS011;8251;53.568;10.018;2023-03-01T08:17:00;11.03;;;4.43;;
16286;SDS011;8251;53.568;10.018;2023-03-01T08:19:32;8.53;;;4.60;;
16286;SDS011;8251;53.568;10.018;2023-03-01T08:22:00;7.63;;;4.40;;
16286;SDS011;8251;53.568;10.018;2023-03-01T08:24:29;9.70;;;4.37;;
16286;SDS011;8251;53.568;10.018;2023-03-01T08:26:59;8.23;;;4.33;;
16286;SDS011;8251;53.568;10.018;2023-03-01T08:29:27;8.13;;;4.73;;
16286;SDS011;8251;53.568;10.018;2023-03-01T08:31:56;8.53;;;4.90;;
16286;SDS011;8251;53.568;10.018;2023-03-01T08:34:24;12.53;;;5.03;;
16286;SDS011;8251;53.568;10.018;2023-03-01T08:36:52;8.57;;;4.50;;
16286;SDS011;8251;53.568;10.018;2023-03-01T08:39:20;9.87;;;4.53;;
16286;SDS011;8251;53.568;10.018;2023-03-01T08:41:47;14.33;;;5.00;;
16286;SDS011;8251;53.568;10.018;2023-03-01T08:44:15;10.10;;;5.77;;
16286;SDS011;8251;53.568;10.018;2023-03-01T08:46:44;10.07;;;5.50;;
16286;SDS011;8251;53.568;10.018;2023-03-01T08:49:12;11.30;;;4.40;;
16286;SDS011;8251;53.568;10.018;2023-03-01T08:51:41;16.27;;;5.70;;
16286;SDS011;8251;53.568;10.018;2023-03-01T08:54:11;11.50;;;6.43;;
16286;SDS011;8251;53.568;10.018;2023-03-01T08:56:41;12.70;;;6.20;;
16286;SDS011;8251;53.568;10.018;2023-03-01T08:59:09;12.87;;;5.47;;
16286;SDS011;8251;53.568;10.018;2023-03-01T09:01:39;8.83;;;5.40;;
16286;SDS011;8251;53.568;10.018;2023-03-01T09:04:08;8.43;;;5.30;;
16286;SDS011;8251;53.568;10.018;2023-03-01T09:06:36;13.13;;;6.33;;
16286;SDS011;8251;53.568;10.018;2023-03-01T09:09:04;9.30;;;6.67;;
16286;SDS011;8251;53.568;10.018;2023-03-01T09:11:32;10.97;;;5.87;;
16286;SDS011;8251;53.568;10.018;2023-03-01T09:13:59;13.97;;;6.17;;
16286;SDS011;8251;53.568;10.018;2023-03-01T09:16:27;10.63;;;6.20;;
16286;SDS011;8251;53.568;10.018;2023-03-01T09:19:02;12.50;;;6.70;;
16286;SDS011;8251;53.568;10.018;2023-03-01T09:21:30;10.83;;;6.60;;
16286;SDS011;8251;53.568;10.018;2023-03-01T09:23:58;8.93;;;5.73;;
16286;SDS011;8251;53.568;10.018;2023-03-01T09:26:27;12.07;;;6.13;;
16286;SDS011;8251;53.568;10.018;2023-03-01T09:28:56;8.60;;;6.07;;
16286;SDS011;8251;53.568;10.018;2023-03-01T09:31:24;11.93;;;6.20;;
16286;SDS011;8251;53.568;10.018;2023-03-01T09:33:52;11.03;;;5.90;;
16286;SDS011;8251;53.568;10.018;2023-03-01T09:36:22;14.57;;;6.30;;
16286;SDS011;8251;53.568;10.018;2023-03-01T09:38:50;11.37;;;6.70;;
16286;SDS011;8251;53.568;10.018;2023-03-01T09:41:22;8.80;;;6.10;;
16286;SDS011;8251;53.568;10.018;2023-03-01T09:44:01;13.33;;;6.60;;
16286;SDS011;8251;53.568;10.018;2023-03-01T09:46:36;10.50;;;6.20;;
16286;SDS011;8251;53.568;10.018;2023-03-01T09:49:09;10.70;;;6.80;;
16286;SDS011;8251;53.568;10.018;2023-03-01T09:51:40;11.90;;;6.43;;
16286;SDS011;8251;53.568;10.018;2023-03-01T09:54:10;12.57;;;6.30;;
16286;SDS011;8251;53.568;10.018;2023-03-01T09:56:40;13.87;;;7.97;;
16286;SDS011;8251;53.568;10.018;2023-03-01T09:59:16;13.47;;;7.03;;
16286;SDS011;8251;53.568;10.018;2023-03-01T10:01:51;11.77;;;6.90;;
16286;SDS011;8251;53.568;10.018;2023-03-01T10:04:28;11.70;;;6.53;;
16286;SDS011;8251;53.568;10.018;2023-03-01T10:07:16;8.80;;;5.83;;
16286;SDS011;8251;53.568;10.018;2023-03-01T10:09:53;12.67;;;6.77;;
16286;SDS011;8251;53.568;10.018;2023-03-01T10:12:20;8.73;;;5.07;;
16286;SDS011;8251;53.568;10.018;2023-03-01T10:14:53;12.57;;;6.73;;
16286;SDS011;8251;53.568;10.018;2023-03-01T10:17:28;10.10;;;5.40;;
16286;SDS011;8251;53.568;10.018;2023-03-01T10:20:10;7.17;;;5.40;;
16286;SDS011;8251;53.568;10.018;2023-03-01T10:22:46;16.80;;;5.80;;
16286;SDS011;8251;53.568;10.018;2023-03-01T10:25:15;11.37;;;5.40;;
16286;SDS011;8251;53.568;10.018;2023-03-01T10:27:49;12.17;;;5.70;;
16286;SDS011;8251;53.568;10.018;2023-03-01T10:30:22;11.30;;;5.80;;
16286;SDS011;8251;53.568;10.018;2023-03-01T10:32:58;11.60;;;6.13;;
16286;SDS011;8251;53.568;10.018;2023-03-01T10:35:27;8.17;;;5.73;;
16286;SDS011;8251;53.568;10.018;2023-03-01T10:38:03;14.10;;;6.00;;
16286;SDS011;8251;53.568;10.018;2023-03-01T10:40:33;13.43;;;6.00;;
16286;SDS011;8251;53.568;10.018;2023-03-01T10:43:01;9.70;;;6.40;;
16286;SDS011;8251;53.568;10.018;2023-03-01T10:45:31;11.13;;;5.90;;
16286;SDS011;8251;53.568;10.018;2023-03-01T10:48:11;9.23;;;4.97;;
16286;SDS011;8251;53.568;10.018;2023-03-01T10:50:46;8.67;;;5.27;;
16286;SDS011;8251;53.568;10.018;2023-03-01T10:56:03;11.40;;;5.83;;
16286;SDS011;8251;53.568;10.018;2023-03-01T10:58:35;10.50;;;5.63;;
16286;SDS011;8251;53.568;10.018;2023-03-01T11:01:05;13.17;;;5.70;;
16286;SDS011;8251;53.568;10.018;2023-03-01T11:04:03;12.73;;;5.83;;
16286;SDS011;8251;53.568;10.018;2023-03-01T11:06:38;10.73;;;6.00;;
16286;SDS011;8251;53.568;10.018;2023-03-01T11:09:14;10.00;;;5.37;;
16286;SDS011;8251;53.568;10.018;2023-03-01T11:11:45;8.67;;;4.43;;
16286;SDS011;8251;53.568;10.018;2023-03-01T11:14:13;6.67;;;4.70;;
16286;SDS011;8251;53.568;10.018;2023-03-01T11:16:44;8.67;;;4.43;;
16286;SDS011;8251;53.568;10.018;2023-03-01T11:19:14;8.63;;;5.07;;
16286;SDS011;8251;53.568;10.018;2023-03-01T11:21:55;7.03;;;4.73;;
16286;SDS011;8251;53.568;10.018;2023-03-01T11:24:32;6.10;;;4.50;;
16286;SDS011;8251;53.568;10.018;2023-03-01T11:27:07;5.97;;;4.10;;
16286;SDS011;8251;53.568;10.018;2023-03-01T11:29:46;10.80;;;6.10;;
16286;SDS011;8251;53.568;10.018;2023-03-01T11:32:19;12.60;;;6.93;;
16286;SDS011;8251;53.568;10.018;2023-03-01T11:34:53;7.03;;;4.57;;
16286;SDS011;8251;53.568;10.018;2023-03-01T11:37:28;7.67;;;4.20;;
16286;SDS011;8251;53.568;10.018;2023-03-01T11:40:05;6.33;;;4.43;;
16286;SDS011;8251;53.568;10.018;2023-03-01T11:42:43;8.77;;;4.63;;
16286;SDS011;8251;53.568;10.018;2023-03-01T11:45:18;8.33;;;5.37;;
16286;SDS011;8251;53.568;10.018;2023-03-01T11:47:55;6.93;;;4.37;;
16286;SDS011;8251;53.568;10.018;2023-03-01T11:50:34;10.00;;;4.30;;
16286;SDS011;8251;53.568;10.018;2023-03-01T11:53:22;7.00;;;4.43;;
16286;SDS011;8251;53.568;10.018;2023-03-01T11:56:03;7.00;;;4.33;;
16286;SDS011;8251;53.568;10.018;2023-03-01T11:58:45;9.13;;;4.20;;
16286;SDS011;8251;53.568;10.018;2023-03-01T12:01:32;6.87;;;4.33;;
16286;SDS011;8251;53.568;10.018;2023-03-01T12:07:18;5.50;;;3.60;;
16286;SDS011;8251;53.568;10.018;2023-03-01T12:12:53;7.30;;;3.47;;
16286;SDS011;8251;53.568;10.018;2023-03-01T12:21:40;4.40;;;2.70;;
16286;SDS011;8251;53.568;10.018;2023-03-01T12:24:21;3.93;;;2.50;;
16286;SDS011;8251;53.568;10.018;2023-03-01T12:27:13;8.13;;;2.73;;
16286;SDS011;8251;53.568;10.018;2023-03-01T12:29:55;3.90;;;2.67;;
16286;SDS011;8251;53.568;10.018;2023-03-01T12:32:35;4.23;;;2.57;;
16286;SDS011;8251;53.568;10.018;2023-03-01T12:35:22;4.37;;;2.90;;
16286;SDS011;8251;53.568;10.018;2023-03-01T12:38:06;3.57;;;2.80;;
16286;SDS011;8251;53.568;10.018;2023-03-01T12:40:53;3.30;;;2.63;;
16286;SDS011;8251;53.568;10.018;2023-03-01T12:43:55;6.53;;;3.80;;
16286;SDS011;8251;53.568;10.018;2023-03-01T12:46:41;4.30;;;3.10;;
16286;SDS011;8251;53.568;10.018;2023-03-01T12:49:20;5.70;;;3.10;;
16286;SDS011;8251;53.568;10.018;2023-03-01T12:51:55;4.27;;;3.00;;
16286;SDS011;8251;53.568;10.018;2023-03-01T12:54:27;4.13;;;2.60;;
16286;SDS011;8251;53.568;10.018;2023-03-01T12:56:59;6.07;;;2.70;;
16286;SDS011;8251;53.568;10.018;2023-03-01T12:59:36;4.03;;;3.17;;
16286;SDS011;8251;53.568;10.018;2023-03-01T13:02:13;5.30;;;3.20;;
16286;SDS011;8251;53.568;10.018;2023-03-01T13:04:50;3.87;;;3.13;;
16286;SDS011;8251;53.568;10.018;2023-03-01T13:07:25;3.70;;;2.93;;
16286;SDS011;8251;53.568;10.018;2023-03-01T13:10:01;4.70;;;3.13;;
16286;SDS011;8251;53.568;10.018;2023-03-01T13:12:50;7.30;;;4.07;;
16286;SDS011;8251;53.568;10.018;2023-03-01T13:15:26;4.57;;;3.63;;
16286;SDS011;8251;53.568;10.018;2023-03-01T13:18:28;4.97;;;3.57;;
16286;SDS011;8251;53.568;10.018;2023-03-01T13:20:58;5.37;;;3.57;;
16286;SDS011;8251;53.568;10.018;2023-03-01T13:23:30;5.47;;;3.60;;
16286;SDS011;8251;53.568;10.018;2023-03-01T13:26:00;5.87;;;4.17;;
16286;SDS011;8251;53.568;10.018;2023-03-01T13:28:54;6.47;;;3.97;;
16286;SDS011;8251;53.568;10.018;2023-03-01T13:34:41;4.17;;;2.90;;
16286;SDS011;8251;53.568;10.018;2023-03-01T13:37:30;5.60;;;3.43;;
16286;SDS011;8251;53.568;10.018;2023-03-01T13:40:05;4.97;;;3.77;;
16286;SDS011;8251;53.568;10.018;2023-03-01T13:45:59;8.20;;;3.70;;
16286;SDS011;8251;53.568;10.018;2023-03-01T13:48:29;6.57;;;3.67;;
16286;SDS011;8251;53.568;10.018;2023-03-01T13:51:00;5.67;;;3.50;;
16286;SDS011;8251;53.568;10.018;2023-03-01T13:53:29;5.17;;;3.27;;
16286;SDS011;8251;53.568;10.018;2023-03-01T13:56:00;6.03;;;3.57;;
16286;SDS011;8251;53.568;10.018;2023-03-01T13:58:30;6.07;;;3.47;;
16286;SDS011;8251;53.568;10.018;2023-03-01T14:01:01;6.80;;;3.50;;
16286;SDS011;8251;53.568;10.018;2023-03-01T14:03:30;6.60;;;3.30;;
16286;SDS011;8251;53.568;10.018;2023-03-01T14:06:06;5.90;;;3.53;;
16286;SDS011;8251;53.568;10.018;2023-03-01T14:08:35;4.13;;;3.70;;
16286;SDS011;8251;53.568;10.018;2023-03-01T14:11:29;3.67;;;2.70;;
16286;SDS011;8251;53.568;10.018;2023-03-01T14:14:32;4.83;;;3.10;;
16286;SDS011;8251;53.568;10.018;2023-03-01T14:17:12;7.10;;;3.03;;
16286;SDS011;8251;53.568;10.018;2023-03-01T14:19:56;5.13;;;2.70;;
16286;SDS011;8251;53.568;10.018;2023-03-01T14:22:27;4.03;;;3.17;;
16286;SDS011;8251;53.568;10.018;2023-03-01T14:25:01;6.27;;;3.10;;
16286;SDS011;8251;53.568;10.018;2023-03-01T14:27:33;8.77;;;3.33;;
16286;SDS011;8251;53.568;10.018;2023-03-01T14:30:10;4.03;;;3.03;;
16286;SDS011;8251;53.568;10.018;2023-03-01T14:32:51;6.20;;;3.30;;
16286;SDS011;8251;53.568;10.018;2023-03-01T14:35:20;4.67;;;3.37;;
16286;SDS011;8251;53.568;10.018;2023-03-01T14:37:51;3.93;;;2.83;;
16286;SDS011;8251;53.568;10.018;2023-03-01T14:40:26;4.60;;;3.00;;
16286;SDS011;8251;53.568;10.018;2023-03-01T14:42:56;3.30;;;3.00;;
16286;SDS011;8251;53.568;10.018;2023-03-01T14:45:27;4.90;;;2.90;;
16286;SDS011;8251;53.568;10.018;2023-03-01T14:47:55;6.53;;;3.57;;
16286;SDS011;8251;53.568;10.018;2023-03-01T14:50:29;3.80;;;2.80;;
16286;SDS011;8251;53.568;10.018;2023-03-01T14:53:02;3.80;;;2.90;;
16286;SDS011;8251;53.568;10.018;2023-03-01T14:55:31;4.70;;;2.87;;
16286;SDS011;8251;53.568;10.018;2023-03-01T14:58:02;5.10;;;2.90;;
16286;SDS011;8251;53.568;10.018;2023-03-01T15:00:30;4.07;;;2.50;;
16286;SDS011;8251;53.568;10.018;2023-03-01T15:03:04;4.77;;;2.70;;
16286;SDS011;8251;53.568;10.018;2023-03-01T15:05:34;5.83;;;3.30;;
16286;SDS011;8251;53.568;10.018;2023-03-01T15:08:11;5.77;;;3.57;;
16286;SDS011;8251;53.568;10.018;2023-03-01T15:10:56;4.90;;;3.10;;
16286;SDS011;8251;53.568;10.018;2023-03-01T15:13:26;4.97;;;3.37;;
16286;SDS011;8251;53.568;10.018;2023-03-01T15:16:02;4.90;;;2.73;;
16286;SDS011;8251;53.568;10.018;2023-03-01T15:18:32;5.47;;;3.40;;
16286;SDS011;8251;53.568;10.018;2023-03-01T15:21:07;4.03;;;3.27;;
16286;SDS011;8251;53.568;10.018;2023-03-01T15:23:37;5.30;;;3.37;;
16286;SDS011;8251;53.568;10.018;2023-03-01T15:26:06;6.13;;;3.13;;
16286;SDS011;8251;53.568;10.018;2023-03-01T15:28:50;4.53;;;3.43;;
16286;SDS011;8251;53.568;10.018;2023-03-01T15:31:20;3.87;;;3.23;;
16286;SDS011;8251;53.568;10.018;2023-03-01T15:33:49;6.43;;;3.40;;
16286;SDS011;8251;53.568;10.018;2023-03-01T15:36:30;6.30;;;3.60;;
16286;SDS011;8251;53.568;10.018;2023-03-01T15:39:01;5.03;;;3.20;;
16286;SDS011;8251;53.568;10.018;2023-03-01T15:41:29;5.00;;;3.13;;